GABSDGAA

Guest
Details From GABS - Bamako Senou
To DGAA - Kotoka Intl
Flight Number -
Tags Generated
Created
Modified
Stats Distance 624 nm / 1,155 km
Max Altitude 0 ft / 0 m
Waypoints 3
Social Downloads 1
Likes 0
Share VATSIM

Download

Looking for another format? Having issues loading an existing format? Contact us
Advertisement - Login to hide

Notes

Generated

Route

GABS ACC DGAA

ID Type Via Altitude Latitude Longitude Leg Dist Tot Dist Heading (true) Name
O GABS APT - 0 ft / 0 m 12.52683˚ -7.96035˚ - 0 nm - -
ACC VOR - 0 ft / 0 m 5.63411˚ -0.15534˚ 620 nm 620 nm 131° / 132° ACCRA VOR-DME
O DGAA APT - 0 ft / 0 m 5.59096˚ -0.17264˚ 2 nm 623 nm 202° / 202° -

Altitude Profile

Advertisement - Login to hide

Weather


0- 5 10 15 20 25 30 35+ Temperature / ° C

Clouds and Precipitation
Forecast for 2018-05-24 06:00 UTC. Updated 3 hours ago

Ground ~20,000 ft ~40,000 ft Winds

GABS

Details ICAO GABS (BKO)
Name Bamako Senou
Region Mali
Timezone Africa/Bamako (UTC+0.0)
Stats Elevation 1,246 ft / 380 m (AMSL)
Location 12.533544° -7.949943°
Runways 1
Magnetic Variation 4.116° W

METAR

GABS 240730Z 21006KT 9999 FEW030 29/22 Q1014 NOSIG

Decode

TAF

TAF GABS 240500Z 2406/2512 20006KT 9999 SCT030 TEMPO 2416/2422 TSRA BKN030 FEW040CB

Decode

Departure Runways

ID Width Length Bearing (true) Bearing (mag) Surface Threshold Offset Overrun Length
06 148 ft / 45 m 8,888 ft / 2,709 m 56.51° 60.63° Asphalt 0 ft / 0 m 327 ft / 100 m
24 148 ft / 45 m 8,888 ft / 2,709 m 236.51° 240.63° Asphalt 0 ft / 0 m 327 ft / 100 m

DGAA

Details ICAO DGAA (ACC)
Name Accra_Kotoka_Intl
Region Ghana
Timezone Africa/Accra (UTC+0.0)
Stats Elevation 204 ft / 62 m (AMSL)
Location 5.602578° -0.167602°
Runways 1
Magnetic Variation 3.374° W

METAR

DGAA 240700Z 26005KT 9999 FEW030CB 26/25 Q1013 NOSIG

Decode

TAF

TAF DGAA 240500Z 2406/2512 27010KT 9999 BKN014 FEW025CB BECMG 2410/2412 19013KT SCT025 BECMG 2417/2419 BKN014CB

Decode

Destination Runways

ID Width Length Bearing (true) Bearing (mag) Surface Threshold Offset Overrun Length
03 200 ft / 61 m 11,176 ft / 3,406 m 22.00° 25.37° Asphalt 0 ft / 0 m 351 ft / 107 m
21 200 ft / 61 m 11,176 ft / 3,406 m 202.00° 205.37° Asphalt 1,355 ft / 413 m 0 ft / 0 m

Approach Navaids

Runway Type Ident Frequency Range Bearing (true) Bearing (mag) Slope Elevation
21 Localiser IACA 109.90 MHz 18 nm / 33 km 202.10° 205.47° - 204 ft / 62 m (AMSL)
21 Glidescope IACA 109.90 MHz 10 nm / 19 km 203.00° 206.37° 3.00° 204 ft / 62 m (AMSL)

Popular Alternatives